Aviation Digital Data Service (ADDS)

Output produced by METARs form (2137 UTC 20 March 2018)
found at http://aviationweather.gov/adds/metars/
METAR text: KAMW 202053Z AUTO 06009KT 10SM FEW035 BKN046 OVC065 04/M03 A2995 RMK AO2 SLP148 T00391033 56013
Conditions at: KAMW (AMES , IA, US) observed 2053 UTC 20 March 2018
Temperature: 3.9°C (39°F)
Dewpoint: -3.3°C (26°F) [RH = 59%]
Pressure (altimeter): 29.95 inches Hg (1014.3 mb)
[Sea-level pressure: 1014.8 mb]
Winds: from the ENE (60 degrees) at 10 MPH (9 knots; 4.7 m/s)
Visibility: 10 or more miles (16+ km)
Ceiling: 4600 feet AGL
Clouds: few clouds at 3500 feet AGL
broken clouds at 4600 feet AGL
overcast cloud deck at 6500 feet AGL
Weather: automated observation with no human augmentation;
there may or may not be significant weather present at this time